13:41
Airports
History
Links
Donate
Help keep this website running!
PayPal
Bitcoin
This page is community maintained. The information is intended for PC simulator navigation or reference.
Always use approved charts for navigation.
LIPK
FORLI
FORLI (LIPK)
Forli, Emilia-Romagna, Italy (47121)
(C)
Lat/Lng:44° 11' 41.07" N / 12° 4' 12.32" E
44.194743 / 12.070088
Elevation:97'ft / 30mMSL
ID / ICAO:LIPK
Runways:1
Longest:12-30
Asphalt 2,398m / 7,867ft
Controlled:Yes
METAR12:50 GMT 2017-11-20
Altimeter: 30.09
Visibility: 6.2 statute miles
Wind: 5 knots (from 090°)
Temp: 13°c / 55°f
Humidity: 47.1%

METAR: LIPK 201250Z 09005KT CAVOK 13/02 Q1019

(Powered by phpweather)
Airport Radio Frequencies
Tower: 118.95, 119.75
Approach: 118.15, 122.1, 124.85
Nearby VORs <50NM
Nearby NDBs
Runway 12 / 30
Dimensions:2397.9 x 45.1m 7867' x 148'ft
Surface:Asphalt
Edge Lights:High intensity
Runway 12 [A]Runway 30 [B]
Heading:117°TH 297°TH
Lat:
Lng:
44° 11' 59.18"N
12° 3' 24.24"E
44° 11' 22.97"N
12° 5' 0.39"E
ALS:SALS
User Notes and Comments
44° 11' 41.07" N / 12° 4' 12.32" E
Distance To
Airport ID:
Nearby Airports
(C) CERVIA 11.9 NM
LIPC ( WX ) E 80°
(U) RAVENNA 14.0 NM
LIDR NNE 33°
(U) Lugo di Romagna 17.6 NM
LIDG NW 322°
(C) Rimini Mil 29.5 NM
LIPR ( WX ) ESE 114°
(C) BOLOGNA 45.2 NM
LIPE ( WX ) WNW 301°
4 Prati Vecchi di Aguscello 45.6 NM
LIDV NNW 334°
(U) Ferrara 48.4 NM
LIPF ( WX ) NNW 332°
VFR Chart
Flight Planning at SkyVector.com